sensor_id;sensor_type;location;lat;lon;timestamp;P1;durP1;ratioP1;P2;durP2;ratioP2
8001;SDS011;4046;48.774;8.732;2022-12-29T00:02:16;3.60;;;3.33;;
8001;SDS011;4046;48.774;8.732;2022-12-29T00:04:43;3.80;;;3.50;;
8001;SDS011;4046;48.774;8.732;2022-12-29T00:07:09;3.80;;;3.50;;
8001;SDS011;4046;48.774;8.732;2022-12-29T00:09:36;3.97;;;3.63;;
8001;SDS011;4046;48.774;8.732;2022-12-29T00:12:03;3.67;;;3.40;;
8001;SDS011;4046;48.774;8.732;2022-12-29T00:14:30;3.90;;;3.60;;
8001;SDS011;4046;48.774;8.732;2022-12-29T00:17:14;3.93;;;3.63;;
8001;SDS011;4046;48.774;8.732;2022-12-29T00:19:41;3.97;;;3.67;;
8001;SDS011;4046;48.774;8.732;2022-12-29T00:22:26;3.60;;;3.30;;
8001;SDS011;4046;48.774;8.732;2022-12-29T00:25:11;3.73;;;3.43;;
8001;SDS011;4046;48.774;8.732;2022-12-29T00:27:57;4.23;;;3.93;;
8001;SDS011;4046;48.774;8.732;2022-12-29T00:30:42;3.40;;;3.20;;
8001;SDS011;4046;48.774;8.732;2022-12-29T00:33:30;3.37;;;3.13;;
8001;SDS011;4046;48.774;8.732;2022-12-29T00:36:23;3.80;;;3.50;;
8001;SDS011;4046;48.774;8.732;2022-12-29T00:39:02;3.20;;;3.00;;
8001;SDS011;4046;48.774;8.732;2022-12-29T00:41:50;3.97;;;3.67;;
8001;SDS011;4046;48.774;8.732;2022-12-29T00:44:35;3.77;;;3.47;;
8001;SDS011;4046;48.774;8.732;2022-12-29T00:47:01;3.60;;;3.30;;
8001;SDS011;4046;48.774;8.732;2022-12-29T00:49:28;3.87;;;3.57;;
8001;SDS011;4046;48.774;8.732;2022-12-29T00:51:59;3.43;;;3.17;;
8001;SDS011;4046;48.774;8.732;2022-12-29T00:54:30;3.77;;;3.53;;
8001;SDS011;4046;48.774;8.732;2022-12-29T00:56:58;2.90;;;2.70;;
8001;SDS011;4046;48.774;8.732;2022-12-29T00:59:25;3.00;;;2.80;;
8001;SDS011;4046;48.774;8.732;2022-12-29T01:01:52;3.40;;;3.10;;
8001;SDS011;4046;48.774;8.732;2022-12-29T01:04:20;3.63;;;3.33;;
8001;SDS011;4046;48.774;8.732;2022-12-29T01:06:47;3.03;;;2.83;;
8001;SDS011;4046;48.774;8.732;2022-12-29T01:09:14;3.27;;;3.07;;
8001;SDS011;4046;48.774;8.732;2022-12-29T01:12:00;2.83;;;2.63;;
8001;SDS011;4046;48.774;8.732;2022-12-29T01:14:26;3.17;;;2.87;;
8001;SDS011;4046;48.774;8.732;2022-12-29T01:16:53;3.07;;;2.87;;
8001;SDS011;4046;48.774;8.732;2022-12-29T01:19:20;3.07;;;2.87;;
8001;SDS011;4046;48.774;8.732;2022-12-29T01:21:47;2.73;;;2.53;;
8001;SDS011;4046;48.774;8.732;2022-12-29T01:24:14;3.10;;;2.90;;
8001;SDS011;4046;48.774;8.732;2022-12-29T01:26:42;3.00;;;2.80;;
8001;SDS011;4046;48.774;8.732;2022-12-29T01:29:08;2.90;;;2.70;;
8001;SDS011;4046;48.774;8.732;2022-12-29T01:31:35;2.90;;;2.70;;
8001;SDS011;4046;48.774;8.732;2022-12-29T01:34:01;2.60;;;2.40;;
8001;SDS011;4046;48.774;8.732;2022-12-29T01:36:28;2.60;;;2.40;;
8001;SDS011;4046;48.774;8.732;2022-12-29T01:38:55;2.83;;;2.63;;
8001;SDS011;4046;48.774;8.732;2022-12-29T01:41:22;2.70;;;2.50;;
8001;SDS011;4046;48.774;8.732;2022-12-29T01:43:52;2.67;;;2.47;;
8001;SDS011;4046;48.774;8.732;2022-12-29T01:48:54;3.07;;;2.87;;
8001;SDS011;4046;48.774;8.732;2022-12-29T01:51:29;2.57;;;2.37;;
8001;SDS011;4046;48.774;8.732;2022-12-29T01:53:57;2.77;;;2.57;;
8001;SDS011;4046;48.774;8.732;2022-12-29T01:56:27;3.07;;;2.87;;
8001;SDS011;4046;48.774;8.732;2022-12-29T01:59:00;3.20;;;2.90;;
8001;SDS011;4046;48.774;8.732;2022-12-29T02:01:29;2.80;;;2.60;;
8001;SDS011;4046;48.774;8.732;2022-12-29T02:03:55;3.00;;;2.80;;
8001;SDS011;4046;48.774;8.732;2022-12-29T02:06:23;2.83;;;2.63;;
8001;SDS011;4046;48.774;8.732;2022-12-29T02:09:21;3.03;;;2.83;;
8001;SDS011;4046;48.774;8.732;2022-12-29T02:11:49;3.10;;;2.90;;
8001;SDS011;4046;48.774;8.732;2022-12-29T02:14:15;2.20;;;2.00;;
8001;SDS011;4046;48.774;8.732;2022-12-29T02:36:56;2.60;;;2.40;;
8001;SDS011;4046;48.774;8.732;2022-12-29T02:45:34;2.60;;;2.40;;
8001;SDS011;4046;48.774;8.732;2022-12-29T02:48:10;2.57;;;2.47;;
8001;SDS011;4046;48.774;8.732;2022-12-29T02:51:00;2.47;;;2.30;;
8001;SDS011;4046;48.774;8.732;2022-12-29T02:53:29;2.80;;;2.60;;
8001;SDS011;4046;48.774;8.732;2022-12-29T02:56:24;2.37;;;2.17;;
8001;SDS011;4046;48.774;8.732;2022-12-29T02:58:50;2.50;;;2.30;;
8001;SDS011;4046;48.774;8.732;2022-12-29T03:04:12;2.60;;;2.40;;
8001;SDS011;4046;48.774;8.732;2022-12-29T03:06:53;2.03;;;1.93;;
8001;SDS011;4046;48.774;8.732;2022-12-29T03:09:35;2.60;;;2.40;;
8001;SDS011;4046;48.774;8.732;2022-12-29T03:15:40;2.33;;;2.13;;
8001;SDS011;4046;48.774;8.732;2022-12-29T03:18:40;2.00;;;1.90;;
8001;SDS011;4046;48.774;8.732;2022-12-29T03:24:33;1.80;;;1.70;;
8001;SDS011;4046;48.774;8.732;2022-12-29T03:27:04;1.90;;;1.80;;
8001;SDS011;4046;48.774;8.732;2022-12-29T03:29:35;2.50;;;2.30;;
8001;SDS011;4046;48.774;8.732;2022-12-29T03:32:07;2.20;;;2.07;;
8001;SDS011;4046;48.774;8.732;2022-12-29T03:34:34;1.90;;;1.80;;
8001;SDS011;4046;48.774;8.732;2022-12-29T03:37:08;2.10;;;1.80;;
8001;SDS011;4046;48.774;8.732;2022-12-29T03:39:40;1.90;;;1.80;;
8001;SDS011;4046;48.774;8.732;2022-12-29T03:42:11;1.80;;;1.70;;
8001;SDS011;4046;48.774;8.732;2022-12-29T03:44:42;1.90;;;1.80;;
8001;SDS011;4046;48.774;8.732;2022-12-29T03:47:10;2.27;;;1.87;;
8001;SDS011;4046;48.774;8.732;2022-12-29T03:49:37;1.83;;;1.73;;
8001;SDS011;4046;48.774;8.732;2022-12-29T03:52:04;2.20;;;2.00;;
8001;SDS011;4046;48.774;8.732;2022-12-29T03:54:30;1.90;;;1.80;;
8001;SDS011;4046;48.774;8.732;2022-12-29T03:56:57;1.50;;;1.40;;
8001;SDS011;4046;48.774;8.732;2022-12-29T03:59:24;1.90;;;1.80;;
8001;SDS011;4046;48.774;8.732;2022-12-29T04:01:50;1.70;;;1.60;;
8001;SDS011;4046;48.774;8.732;2022-12-29T04:04:16;2.90;;;1.70;;
8001;SDS011;4046;48.774;8.732;2022-12-29T04:06:42;1.63;;;1.53;;
8001;SDS011;4046;48.774;8.732;2022-12-29T04:09:09;1.67;;;1.57;;
8001;SDS011;4046;48.774;8.732;2022-12-29T04:11:36;1.67;;;1.53;;
8001;SDS011;4046;48.774;8.732;2022-12-29T04:14:02;1.60;;;1.50;;
8001;SDS011;4046;48.774;8.732;2022-12-29T04:16:28;1.70;;;1.60;;
8001;SDS011;4046;48.774;8.732;2022-12-29T04:18:54;1.60;;;1.50;;
8001;SDS011;4046;48.774;8.732;2022-12-29T04:21:21;3.27;;;2.00;;
8001;SDS011;4046;48.774;8.732;2022-12-29T04:23:47;1.83;;;1.73;;
8001;SDS011;4046;48.774;8.732;2022-12-29T04:26:13;1.70;;;1.60;;
8001;SDS011;4046;48.774;8.732;2022-12-29T04:28:39;1.47;;;1.37;;
8001;SDS011;4046;48.774;8.732;2022-12-29T04:31:05;1.80;;;1.70;;
8001;SDS011;4046;48.774;8.732;2022-12-29T04:33:31;1.60;;;1.50;;
8001;SDS011;4046;48.774;8.732;2022-12-29T04:35:58;1.40;;;1.30;;
8001;SDS011;4046;48.774;8.732;2022-12-29T04:38:24;1.50;;;1.40;;
8001;SDS011;4046;48.774;8.732;2022-12-29T04:40:50;1.80;;;1.70;;
8001;SDS011;4046;48.774;8.732;2022-12-29T04:43:17;1.43;;;1.33;;
8001;SDS011;4046;48.774;8.732;2022-12-29T04:45:47;1.50;;;1.40;;
8001;SDS011;4046;48.774;8.732;2022-12-29T04:48:14;1.50;;;1.40;;
8001;SDS011;4046;48.774;8.732;2022-12-29T04:50:41;1.30;;;1.20;;
8001;SDS011;4046;48.774;8.732;2022-12-29T04:53:08;1.50;;;1.40;;
8001;SDS011;4046;48.774;8.732;2022-12-29T04:55:35;1.37;;;1.27;;
8001;SDS011;4046;48.774;8.732;2022-12-29T04:58:01;1.57;;;1.47;;
8001;SDS011;4046;48.774;8.732;2022-12-29T05:00:27;2.23;;;1.50;;
8001;SDS011;4046;48.774;8.732;2022-12-29T05:02:54;1.50;;;1.40;;
8001;SDS011;4046;48.774;8.732;2022-12-29T05:05:20;1.70;;;1.60;;
8001;SDS011;4046;48.774;8.732;2022-12-29T05:07:46;1.33;;;1.20;;
8001;SDS011;4046;48.774;8.732;2022-12-29T05:10:12;1.53;;;1.43;;
8001;SDS011;4046;48.774;8.732;2022-12-29T05:12:38;1.30;;;1.17;;
8001;SDS011;4046;48.774;8.732;2022-12-29T05:15:06;1.37;;;1.27;;
8001;SDS011;4046;48.774;8.732;2022-12-29T05:17:36;1.50;;;1.40;;
8001;SDS011;4046;48.774;8.732;2022-12-29T05:20:03;1.63;;;1.53;;
8001;SDS011;4046;48.774;8.732;2022-12-29T05:22:30;1.50;;;1.40;;
8001;SDS011;4046;48.774;8.732;2022-12-29T05:24:57;1.40;;;1.30;;
8001;SDS011;4046;48.774;8.732;2022-12-29T05:27:23;1.53;;;1.43;;
8001;SDS011;4046;48.774;8.732;2022-12-29T05:29:49;1.30;;;1.20;;
8001;SDS011;4046;48.774;8.732;2022-12-29T05:32:15;1.40;;;1.30;;
8001;SDS011;4046;48.774;8.732;2022-12-29T05:34:42;1.20;;;1.10;;
8001;SDS011;4046;48.774;8.732;2022-12-29T05:37:08;1.50;;;1.40;;
8001;SDS011;4046;48.774;8.732;2022-12-29T05:39:34;1.50;;;1.30;;
8001;SDS011;4046;48.774;8.732;2022-12-29T05:42:00;1.30;;;1.20;;
8001;SDS011;4046;48.774;8.732;2022-12-29T05:44:26;1.30;;;1.20;;
8001;SDS011;4046;48.774;8.732;2022-12-29T05:46:53;1.30;;;1.20;;
8001;SDS011;4046;48.774;8.732;2022-12-29T05:49:19;1.30;;;1.20;;
8001;SDS011;4046;48.774;8.732;2022-12-29T05:51:45;1.90;;;1.13;;
8001;SDS011;4046;48.774;8.732;2022-12-29T05:54:11;1.30;;;1.17;;
8001;SDS011;4046;48.774;8.732;2022-12-29T05:56:37;1.37;;;1.27;;
8001;SDS011;4046;48.774;8.732;2022-12-29T05:59:04;1.30;;;1.00;;
8001;SDS011;4046;48.774;8.732;2022-12-29T06:01:30;1.40;;;1.30;;
8001;SDS011;4046;48.774;8.732;2022-12-29T06:03:56;1.50;;;1.27;;
8001;SDS011;4046;48.774;8.732;2022-12-29T06:06:22;1.30;;;1.17;;
8001;SDS011;4046;48.774;8.732;2022-12-29T06:08:48;1.20;;;1.00;;
8001;SDS011;4046;48.774;8.732;2022-12-29T06:11:14;1.40;;;1.30;;
8001;SDS011;4046;48.774;8.732;2022-12-29T06:13:41;1.30;;;1.20;;
8001;SDS011;4046;48.774;8.732;2022-12-29T06:16:08;1.30;;;1.10;;
8001;SDS011;4046;48.774;8.732;2022-12-29T06:18:34;1.60;;;1.30;;
8001;SDS011;4046;48.774;8.732;2022-12-29T06:21:00;1.40;;;1.10;;
8001;SDS011;4046;48.774;8.732;2022-12-29T06:23:27;1.50;;;1.40;;
8001;SDS011;4046;48.774;8.732;2022-12-29T06:25:54;1.20;;;1.10;;
8001;SDS011;4046;48.774;8.732;2022-12-29T06:28:20;1.30;;;1.20;;
8001;SDS011;4046;48.774;8.732;2022-12-29T06:30:47;1.37;;;1.17;;
8001;SDS011;4046;48.774;8.732;2022-12-29T06:33:14;1.20;;;1.10;;
8001;SDS011;4046;48.774;8.732;2022-12-29T06:35:44;1.30;;;0.97;;
8001;SDS011;4046;48.774;8.732;2022-12-29T06:38:11;1.20;;;1.07;;
8001;SDS011;4046;48.774;8.732;2022-12-29T06:40:38;1.40;;;1.10;;
8001;SDS011;4046;48.774;8.732;2022-12-29T06:43:05;1.73;;;1.10;;
8001;SDS011;4046;48.774;8.732;2022-12-29T06:45:31;1.30;;;1.10;;
8001;SDS011;4046;48.774;8.732;2022-12-29T06:47:57;1.80;;;1.00;;
8001;SDS011;4046;48.774;8.732;2022-12-29T06:50:23;1.40;;;1.30;;
8001;SDS011;4046;48.774;8.732;2022-12-29T06:52:49;1.30;;;1.20;;
8001;SDS011;4046;48.774;8.732;2022-12-29T06:55:15;1.33;;;1.17;;
8001;SDS011;4046;48.774;8.732;2022-12-29T06:57:42;1.30;;;1.20;;
8001;SDS011;4046;48.774;8.732;2022-12-29T07:00:08;1.30;;;1.00;;
8001;SDS011;4046;48.774;8.732;2022-12-29T07:02:35;1.20;;;1.10;;
8001;SDS011;4046;48.774;8.732;2022-12-29T07:05:01;1.30;;;1.17;;
8001;SDS011;4046;48.774;8.732;2022-12-29T07:07:27;1.20;;;1.10;;
8001;SDS011;4046;48.774;8.732;2022-12-29T07:09:53;1.30;;;1.20;;
8001;SDS011;4046;48.774;8.732;2022-12-29T07:12:19;1.50;;;1.20;;
8001;SDS011;4046;48.774;8.732;2022-12-29T07:14:45;1.30;;;1.13;;
8001;SDS011;4046;48.774;8.732;2022-12-29T07:17:12;1.30;;;1.20;;
8001;SDS011;4046;48.774;8.732;2022-12-29T07:19:38;1.40;;;1.30;;
8001;SDS011;4046;48.774;8.732;2022-12-29T07:22:04;1.73;;;1.20;;
8001;SDS011;4046;48.774;8.732;2022-12-29T07:24:30;1.30;;;1.17;;
8001;SDS011;4046;48.774;8.732;2022-12-29T07:26:56;1.50;;;1.30;;
8001;SDS011;4046;48.774;8.732;2022-12-29T07:29:22;1.43;;;1.33;;
8001;SDS011;4046;48.774;8.732;2022-12-29T07:31:49;1.70;;;1.50;;
8001;SDS011;4046;48.774;8.732;2022-12-29T07:34:15;1.40;;;1.17;;
8001;SDS011;4046;48.774;8.732;2022-12-29T07:36:42;1.40;;;1.10;;
8001;SDS011;4046;48.774;8.732;2022-12-29T07:39:08;1.50;;;1.40;;
8001;SDS011;4046;48.774;8.732;2022-12-29T07:41:34;1.60;;;1.50;;
8001;SDS011;4046;48.774;8.732;2022-12-29T07:44:00;1.73;;;1.47;;
8001;SDS011;4046;48.774;8.732;2022-12-29T07:46:26;1.40;;;1.20;;
8001;SDS011;4046;48.774;8.732;2022-12-29T07:48:52;1.53;;;1.30;;
8001;SDS011;4046;48.774;8.732;2022-12-29T07:51:19;1.47;;;1.33;;
8001;SDS011;4046;48.774;8.732;2022-12-29T07:53:45;1.40;;;1.30;;
8001;SDS011;4046;48.774;8.732;2022-12-29T07:56:11;1.50;;;1.40;;
8001;SDS011;4046;48.774;8.732;2022-12-29T07:58:37;1.27;;;1.13;;
8001;SDS011;4046;48.774;8.732;2022-12-29T08:01:03;1.40;;;1.13;;
8001;SDS011;4046;48.774;8.732;2022-12-29T08:03:31;1.50;;;1.40;;
8001;SDS011;4046;48.774;8.732;2022-12-29T08:05:57;1.50;;;1.20;;
8001;SDS011;4046;48.774;8.732;2022-12-29T08:08:23;1.47;;;1.37;;
8001;SDS011;4046;48.774;8.732;2022-12-29T08:10:49;1.30;;;1.20;;
8001;SDS011;4046;48.774;8.732;2022-12-29T08:13:15;1.40;;;1.30;;
8001;SDS011;4046;48.774;8.732;2022-12-29T08:15:41;1.30;;;1.10;;
8001;SDS011;4046;48.774;8.732;2022-12-29T08:18:08;1.40;;;1.10;;
8001;SDS011;4046;48.774;8.732;2022-12-29T08:20:34;1.33;;;1.13;;
8001;SDS011;4046;48.774;8.732;2022-12-29T08:23:00;1.50;;;1.40;;
8001;SDS011;4046;48.774;8.732;2022-12-29T08:25:26;1.60;;;1.27;;
8001;SDS011;4046;48.774;8.732;2022-12-29T08:27:52;1.50;;;1.40;;
8001;SDS011;4046;48.774;8.732;2022-12-29T08:30:18;1.43;;;1.33;;
8001;SDS011;4046;48.774;8.732;2022-12-29T08:32:45;1.33;;;1.10;;
8001;SDS011;4046;48.774;8.732;2022-12-29T08:35:11;1.33;;;1.23;;
8001;SDS011;4046;48.774;8.732;2022-12-29T08:37:38;1.60;;;1.13;;
8001;SDS011;4046;48.774;8.732;2022-12-29T08:40:04;1.90;;;1.30;;
8001;SDS011;4046;48.774;8.732;2022-12-29T08:42:31;1.40;;;1.30;;
8001;SDS011;4046;48.774;8.732;2022-12-29T08:44:58;1.40;;;1.20;;
8001;SDS011;4046;48.774;8.732;2022-12-29T08:47:25;1.40;;;1.20;;
8001;SDS011;4046;48.774;8.732;2022-12-29T08:49:51;1.50;;;1.30;;
8001;SDS011;4046;48.774;8.732;2022-12-29T08:52:18;1.63;;;1.20;;
8001;SDS011;4046;48.774;8.732;2022-12-29T08:54:44;1.23;;;1.07;;
8001;SDS011;4046;48.774;8.732;2022-12-29T08:57:10;1.30;;;1.10;;
8001;SDS011;4046;48.774;8.732;2022-12-29T08:59:36;1.40;;;1.30;;
8001;SDS011;4046;48.774;8.732;2022-12-29T09:02:03;1.43;;;1.30;;
8001;SDS011;4046;48.774;8.732;2022-12-29T09:04:29;1.40;;;1.23;;
8001;SDS011;4046;48.774;8.732;2022-12-29T09:06:55;1.33;;;1.23;;
8001;SDS011;4046;48.774;8.732;2022-12-29T09:09:21;1.50;;;1.20;;
8001;SDS011;4046;48.774;8.732;2022-12-29T09:11:47;1.40;;;1.30;;
8001;SDS011;4046;48.774;8.732;2022-12-29T09:14:14;1.27;;;1.13;;
8001;SDS011;4046;48.774;8.732;2022-12-29T09:16:40;1.37;;;1.10;;
8001;SDS011;4046;48.774;8.732;2022-12-29T09:19:25;1.30;;;1.20;;
8001;SDS011;4046;48.774;8.732;2022-12-29T09:21:51;2.20;;;1.20;;
8001;SDS011;4046;48.774;8.732;2022-12-29T09:24:18;1.50;;;1.40;;
8001;SDS011;4046;48.774;8.732;2022-12-29T09:26:44;1.40;;;1.00;;
8001;SDS011;4046;48.774;8.732;2022-12-29T09:29:10;1.37;;;1.27;;
8001;SDS011;4046;48.774;8.732;2022-12-29T09:31:36;1.60;;;1.37;;
8001;SDS011;4046;48.774;8.732;2022-12-29T09:34:02;1.30;;;1.10;;
8001;SDS011;4046;48.774;8.732;2022-12-29T09:36:28;1.30;;;1.17;;
8001;SDS011;4046;48.774;8.732;2022-12-29T09:38:55;1.50;;;1.20;;
8001;SDS011;4046;48.774;8.732;2022-12-29T09:41:24;1.27;;;1.10;;
8001;SDS011;4046;48.774;8.732;2022-12-29T09:46:46;1.40;;;1.20;;
8001;SDS011;4046;48.774;8.732;2022-12-29T09:49:39;1.50;;;1.10;;
8001;SDS011;4046;48.774;8.732;2022-12-29T09:52:17;1.90;;;1.30;;
8001;SDS011;4046;48.774;8.732;2022-12-29T09:54:55;1.30;;;1.20;;
8001;SDS011;4046;48.774;8.732;2022-12-29T09:57:47;1.40;;;1.10;;
8001;SDS011;4046;48.774;8.732;2022-12-29T10:00:26;1.30;;;1.10;;
8001;SDS011;4046;48.774;8.732;2022-12-29T10:03:06;1.53;;;1.43;;
8001;SDS011;4046;48.774;8.732;2022-12-29T10:05:49;1.50;;;1.40;;
8001;SDS011;4046;48.774;8.732;2022-12-29T10:08:42;1.50;;;1.40;;
8001;SDS011;4046;48.774;8.732;2022-12-29T10:17:24;1.30;;;1.10;;
8001;SDS011;4046;48.774;8.732;2022-12-29T10:20:14;1.60;;;1.40;;
8001;SDS011;4046;48.774;8.732;2022-12-29T10:22:56;1.40;;;1.30;;
8001;SDS011;4046;48.774;8.732;2022-12-29T10:25:38;1.30;;;1.20;;
8001;SDS011;4046;48.774;8.732;2022-12-29T10:28:54;1.30;;;1.10;;
8001;SDS011;4046;48.774;8.732;2022-12-29T10:31:13;3.97;;;1.17;;
8001;SDS011;4046;48.774;8.732;2022-12-29T10:33:45;1.40;;;1.00;;
8001;SDS011;4046;48.774;8.732;2022-12-29T10:39:06;2.93;;;1.23;;
8001;SDS011;4046;48.774;8.732;2022-12-29T10:44:35;1.60;;;1.17;;
8001;SDS011;4046;48.774;8.732;2022-12-29T10:47:06;1.30;;;1.10;;
8001;SDS011;4046;48.774;8.732;2022-12-29T10:49:39;2.33;;;1.30;;
8001;SDS011;4046;48.774;8.732;2022-12-29T10:52:09;1.50;;;1.20;;
8001;SDS011;4046;48.774;8.732;2022-12-29T10:54:50;2.33;;;1.20;;
8001;SDS011;4046;48.774;8.732;2022-12-29T10:59:59;2.33;;;1.40;;
8001;SDS011;4046;48.774;8.732;2022-12-29T11:02:33;1.60;;;1.50;;
8001;SDS011;4046;48.774;8.732;2022-12-29T11:08:17;2.13;;;1.10;;
8001;SDS011;4046;48.774;8.732;2022-12-29T11:11:06;1.87;;;1.53;;
8001;SDS011;4046;48.774;8.732;2022-12-29T11:13:36;1.73;;;1.40;;
8001;SDS011;4046;48.774;8.732;2022-12-29T11:16:13;3.60;;;1.80;;
8001;SDS011;4046;48.774;8.732;2022-12-29T11:18:40;2.67;;;1.70;;
8001;SDS011;4046;48.774;8.732;2022-12-29T11:24:17;2.83;;;2.50;;
8001;SDS011;4046;48.774;8.732;2022-12-29T11:26:46;4.57;;;3.20;;
8001;SDS011;4046;48.774;8.732;2022-12-29T11:31:47;6.17;;;5.13;;
8001;SDS011;4046;48.774;8.732;2022-12-29T11:34:23;9.97;;;6.80;;
8001;SDS011;4046;48.774;8.732;2022-12-29T11:37:01;11.03;;;7.00;;
8001;SDS011;4046;48.774;8.732;2022-12-29T11:42:16;15.00;;;9.93;;
8001;SDS011;4046;48.774;8.732;2022-12-29T11:44:46;16.70;;;11.10;;
8001;SDS011;4046;48.774;8.732;2022-12-29T11:47:20;15.77;;;11.30;;
8001;SDS011;4046;48.774;8.732;2022-12-29T11:49:52;22.27;;;14.50;;
8001;SDS011;4046;48.774;8.732;2022-12-29T11:52:24;22.33;;;14.50;;
8001;SDS011;4046;48.774;8.732;2022-12-29T11:54:53;24.77;;;18.10;;
8001;SDS011;4046;48.774;8.732;2022-12-29T11:57:22;28.30;;;19.50;;
8001;SDS011;4046;48.774;8.732;2022-12-29T11:59:51;35.33;;;20.80;;
8001;SDS011;4046;48.774;8.732;2022-12-29T12:05:19;49.73;;;34.07;;
8001;SDS011;4046;48.774;8.732;2022-12-29T12:07:54;59.07;;;37.23;;
8001;SDS011;4046;48.774;8.732;2022-12-29T12:10:30;59.53;;;40.93;;
8001;SDS011;4046;48.774;8.732;2022-12-29T12:16:06;64.43;;;42.87;;
8001;SDS011;4046;48.774;8.732;2022-12-29T12:18:39;66.30;;;41.33;;
8001;SDS011;4046;48.774;8.732;2022-12-29T12:21:24;69.87;;;45.93;;
8001;SDS011;4046;48.774;8.732;2022-12-29T12:29:50;71.73;;;46.33;;
8001;SDS011;4046;48.774;8.732;2022-12-29T12:35:16;61.60;;;43.83;;
8001;SDS011;4046;48.774;8.732;2022-12-29T12:38:20;65.87;;;41.80;;
8001;SDS011;4046;48.774;8.732;2022-12-29T12:46:17;67.03;;;41.97;;
8001;SDS011;4046;48.774;8.732;2022-12-29T12:52:01;62.87;;;40.90;;
8001;SDS011;4046;48.774;8.732;2022-12-29T13:00:38;66.93;;;42.03;;
8001;SDS011;4046;48.774;8.732;2022-12-29T13:04:12;70.43;;;45.07;;
8001;SDS011;4046;48.774;8.732;2022-12-29T13:18:03;85.07;;;49.80;;
8001;SDS011;4046;48.774;8.732;2022-12-29T13:23:44;93.37;;;55.97;;
8001;SDS011;4046;48.774;8.732;2022-12-29T13:31:49;100.87;;;59.80;;
8001;SDS011;4046;48.774;8.732;2022-12-29T13:37:31;108.50;;;58.60;;
8001;SDS011;4046;48.774;8.732;2022-12-29T13:40:10;105.43;;;59.10;;
8001;SDS011;4046;48.774;8.732;2022-12-29T13:42:40;99.23;;;56.10;;
8001;SDS011;4046;48.774;8.732;2022-12-29T13:45:12;103.13;;;57.07;;
8001;SDS011;4046;48.774;8.732;2022-12-29T13:47:44;100.93;;;55.80;;
8001;SDS011;4046;48.774;8.732;2022-12-29T13:50:19;94.70;;;54.73;;
8001;SDS011;4046;48.774;8.732;2022-12-29T14:01:28;133.87;;;63.77;;
8001;SDS011;4046;48.774;8.732;2022-12-29T14:04:12;118.50;;;61.80;;
8001;SDS011;4046;48.774;8.732;2022-12-29T14:06:39;117.37;;;62.43;;
8001;SDS011;4046;48.774;8.732;2022-12-29T14:09:30;105.53;;;58.50;;
8001;SDS011;4046;48.774;8.732;2022-12-29T14:15:14;84.80;;;48.20;;
8001;SDS011;4046;48.774;8.732;2022-12-29T14:17:59;89.30;;;47.43;;
8001;SDS011;4046;48.774;8.732;2022-12-29T14:20:36;78.43;;;45.77;;
8001;SDS011;4046;48.774;8.732;2022-12-29T14:25:55;83.33;;;47.13;;
8001;SDS011;4046;48.774;8.732;2022-12-29T14:28:32;75.83;;;45.30;;
8001;SDS011;4046;48.774;8.732;2022-12-29T14:31:04;67.17;;;42.63;;
8001;SDS011;4046;48.774;8.732;2022-12-29T14:36:37;73.43;;;44.87;;
8001;SDS011;4046;48.774;8.732;2022-12-29T14:47:27;63.10;;;39.37;;
8001;SDS011;4046;48.774;8.732;2022-12-29T14:50:05;63.23;;;39.27;;
8001;SDS011;4046;48.774;8.732;2022-12-29T14:52:32;60.33;;;37.63;;
8001;SDS011;4046;48.774;8.732;2022-12-29T14:57:44;58.20;;;37.10;;
8001;SDS011;4046;48.774;8.732;2022-12-29T15:00:34;53.10;;;35.57;;
8001;SDS011;4046;48.774;8.732;2022-12-29T15:03:05;55.50;;;35.50;;
8001;SDS011;4046;48.774;8.732;2022-12-29T15:05:55;49.87;;;33.67;;
8001;SDS011;4046;48.774;8.732;2022-12-29T15:08:25;55.20;;;35.80;;
8001;SDS011;4046;48.774;8.732;2022-12-29T15:11:06;48.97;;;34.17;;
8001;SDS011;4046;48.774;8.732;2022-12-29T15:13:40;53.77;;;33.83;;
8001;SDS011;4046;48.774;8.732;2022-12-29T15:16:20;45.07;;;31.27;;
8001;SDS011;4046;48.774;8.732;2022-12-29T15:18:48;50.00;;;33.00;;
8001;SDS011;4046;48.774;8.732;2022-12-29T15:21:14;51.03;;;32.93;;
8001;SDS011;4046;48.774;8.732;2022-12-29T15:23:44;45.90;;;30.40;;
8001;SDS011;4046;48.774;8.732;2022-12-29T15:26:11;42.50;;;29.57;;
8001;SDS011;4046;48.774;8.732;2022-12-29T15:28:45;44.10;;;28.67;;
8001;SDS011;4046;48.774;8.732;2022-12-29T15:31:13;41.27;;;29.30;;
8001;SDS011;4046;48.774;8.732;2022-12-29T15:33:43;39.00;;;26.10;;
8001;SDS011;4046;48.774;8.732;2022-12-29T15:38:50;39.57;;;26.20;;
8001;SDS011;4046;48.774;8.732;2022-12-29T15:44:26;36.47;;;25.00;;
8001;SDS011;4046;48.774;8.732;2022-12-29T15:47:01;38.67;;;25.90;;
8001;SDS011;4046;48.774;8.732;2022-12-29T15:49:29;34.67;;;24.60;;
8001;SDS011;4046;48.774;8.732;2022-12-29T15:51:56;33.17;;;23.23;;
8001;SDS011;4046;48.774;8.732;2022-12-29T15:54:24;33.83;;;24.63;;
8001;SDS011;4046;48.774;8.732;2022-12-29T15:56:54;33.13;;;23.33;;
8001;SDS011;4046;48.774;8.732;2022-12-29T16:01:52;32.43;;;22.07;;
8001;SDS011;4046;48.774;8.732;2022-12-29T16:04:20;29.53;;;21.53;;
8001;SDS011;4046;48.774;8.732;2022-12-29T16:07:21;30.80;;;21.73;;
8001;SDS011;4046;48.774;8.732;2022-12-29T16:09:47;29.43;;;21.07;;
8001;SDS011;4046;48.774;8.732;2022-12-29T16:12:16;31.73;;;20.57;;
8001;SDS011;4046;48.774;8.732;2022-12-29T16:14:50;27.47;;;19.17;;
8001;SDS011;4046;48.774;8.732;2022-12-29T16:17:24;27.07;;;20.63;;
8001;SDS011;4046;48.774;8.732;2022-12-29T16:19:54;25.07;;;18.63;;
8001;SDS011;4046;48.774;8.732;2022-12-29T16:22:28;27.60;;;18.00;;
8001;SDS011;4046;48.774;8.732;2022-12-29T16:25:24;27.47;;;17.90;;
8001;SDS011;4046;48.774;8.732;2022-12-29T16:27:57;33.73;;;18.57;;
8001;SDS011;4046;48.774;8.732;2022-12-29T16:30:26;26.77;;;17.80;;
8001;SDS011;4046;48.774;8.732;2022-12-29T16:32:57;31.87;;;17.60;;
8001;SDS011;4046;48.774;8.732;2022-12-29T16:43:33;23.07;;;15.97;;
8001;SDS011;4046;48.774;8.732;2022-12-29T16:46:25;24.30;;;16.90;;
8001;SDS011;4046;48.774;8.732;2022-12-29T16:48:55;24.97;;;16.50;;
8001;SDS011;4046;48.774;8.732;2022-12-29T16:51:32;22.17;;;14.90;;
8001;SDS011;4046;48.774;8.732;2022-12-29T16:54:02;25.53;;;14.50;;
8001;SDS011;4046;48.774;8.732;2022-12-29T16:56:33;21.70;;;14.07;;
8001;SDS011;4046;48.774;8.732;2022-12-29T16:59:03;19.67;;;14.23;;
8001;SDS011;4046;48.774;8.732;2022-12-29T17:01:35;21.00;;;14.33;;
8001;SDS011;4046;48.774;8.732;2022-12-29T17:04:05;30.60;;;17.53;;
8001;SDS011;4046;48.774;8.732;2022-12-29T17:06:34;25.83;;;17.00;;
8001;SDS011;4046;48.774;8.732;2022-12-29T17:09:00;26.90;;;18.30;;
8001;SDS011;4046;48.774;8.732;2022-12-29T17:11:30;30.07;;;20.43;;
8001;SDS011;4046;48.774;8.732;2022-12-29T17:14:18;35.87;;;20.47;;
8001;SDS011;4046;48.774;8.732;2022-12-29T17:17:05;38.20;;;24.30;;
8001;SDS011;4046;48.774;8.732;2022-12-29T17:19:55;33.50;;;22.57;;
8001;SDS011;4046;48.774;8.732;2022-12-29T17:22:25;38.90;;;23.90;;
8001;SDS011;4046;48.774;8.732;2022-12-29T17:24:53;54.10;;;33.93;;
8001;SDS011;4046;48.774;8.732;2022-12-29T17:29:49;53.50;;;36.17;;
8001;SDS011;4046;48.774;8.732;2022-12-29T17:32:16;52.07;;;34.57;;
8001;SDS011;4046;48.774;8.732;2022-12-29T17:34:42;58.50;;;34.97;;
8001;SDS011;4046;48.774;8.732;2022-12-29T17:39:50;44.93;;;31.50;;
8001;SDS011;4046;48.774;8.732;2022-12-29T17:42:19;47.67;;;30.70;;
8001;SDS011;4046;48.774;8.732;2022-12-29T17:44:45;51.20;;;32.77;;
8001;SDS011;4046;48.774;8.732;2022-12-29T17:47:12;45.10;;;30.23;;
8001;SDS011;4046;48.774;8.732;2022-12-29T17:49:40;44.60;;;31.20;;
8001;SDS011;4046;48.774;8.732;2022-12-29T17:52:13;42.37;;;28.73;;
8001;SDS011;4046;48.774;8.732;2022-12-29T17:54:43;42.87;;;29.73;;
8001;SDS011;4046;48.774;8.732;2022-12-29T17:57:17;43.53;;;28.87;;
8001;SDS011;4046;48.774;8.732;2022-12-29T17:59:45;44.80;;;29.67;;
8001;SDS011;4046;48.774;8.732;2022-12-29T18:02:21;39.37;;;26.80;;
8001;SDS011;4046;48.774;8.732;2022-12-29T18:04:53;37.70;;;26.63;;
8001;SDS011;4046;48.774;8.732;2022-12-29T18:07:21;39.10;;;27.80;;
8001;SDS011;4046;48.774;8.732;2022-12-29T18:09:47;38.67;;;26.20;;
8001;SDS011;4046;48.774;8.732;2022-12-29T18:14:54;39.17;;;26.40;;
8001;SDS011;4046;48.774;8.732;2022-12-29T18:17:21;38.07;;;24.80;;
8001;SDS011;4046;48.774;8.732;2022-12-29T18:19:48;32.70;;;25.37;;
8001;SDS011;4046;48.774;8.732;2022-12-29T18:22:15;34.90;;;24.73;;